createdAt,value
2022-11-13T00:02:48.329Z,99565.91
2022-11-13T00:08:11.547Z,99559.94
2022-11-13T00:13:34.165Z,99557.81
2022-11-13T00:18:55.762Z,99560.44
2022-11-13T00:24:18.568Z,99562.44
2022-11-13T00:29:40.236Z,99558.31
2022-11-13T00:35:02.048Z,99561.28
2022-11-13T00:40:24.981Z,99543.06
2022-11-13T00:45:46.484Z,99538.31
2022-11-13T00:51:08.403Z,99536.81
2022-11-13T00:56:30.972Z,99530.66
2022-11-13T01:01:52.418Z,99539.50
2022-11-13T01:07:13.895Z,99532.78
2022-11-13T01:12:36.881Z,99525.03
2022-11-13T01:17:58.518Z,99525.13
2022-11-13T01:23:19.745Z,99524.47
2022-11-13T01:28:43.978Z,99521.34
2022-11-13T01:34:05.604Z,99517.84
2022-11-13T01:39:27.414Z,99525.69
2022-11-13T01:44:53.416Z,99515.47
2022-11-13T01:50:16.084Z,99514.41
2022-11-13T01:55:37.546Z,99512.81
2022-11-13T02:01:00.454Z,99505.13
2022-11-13T02:06:22.721Z,99499.72
2022-11-13T02:11:44.892Z,99507.63
2022-11-13T02:17:10.164Z,99500.66
2022-11-13T02:22:39.600Z,99480.53
2022-11-13T02:28:02.765Z,99471.16
2022-11-13T02:33:27.493Z,99480.97
2022-11-13T02:38:49.676Z,99470.88
2022-11-13T02:44:13.499Z,99465.94
2022-11-13T02:49:34.967Z,99457.38
2022-11-13T02:54:56.550Z,99456.69
2022-11-13T03:00:20.216Z,99461.50
2022-11-13T03:05:41.665Z,99459.06
2022-11-13T03:11:08.776Z,99451.28
2022-11-13T03:16:31.273Z,99455.72
2022-11-13T03:21:53.187Z,99455.22
2022-11-13T03:27:14.615Z,99449.16
2022-11-13T03:32:37.656Z,99445.69
2022-11-13T03:37:59.193Z,99451.56
2022-11-13T03:43:21.031Z,99442.97
2022-11-13T03:48:43.751Z,99435.59
2022-11-13T03:54:05.743Z,99430.84
2022-11-13T03:59:27.014Z,99424.53
2022-11-13T04:04:49.961Z,99419.03
2022-11-13T04:10:11.503Z,99425.28
2022-11-13T04:15:33.023Z,99427.13
2022-11-13T04:21:01.277Z,99428.75
2022-11-13T04:26:23.211Z,99424.03
2022-11-13T04:31:45.179Z,99419.69
2022-11-13T04:37:08.124Z,99407.66
2022-11-13T04:42:47.186Z,99401.84
2022-11-13T04:48:09.080Z,99391.00
2022-11-13T04:53:32.140Z,99387.44
2022-11-13T04:58:53.982Z,99384.81
2022-11-13T05:04:16.768Z,99379.97
2022-11-13T05:09:39.477Z,99368.16
2022-11-13T05:15:01.600Z,99373.44
2022-11-13T05:20:23.398Z,99358.91
2022-11-13T05:25:46.494Z,99348.31
2022-11-13T05:31:09.990Z,99346.63
2022-11-13T05:36:31.401Z,99342.75
2022-11-13T05:41:54.359Z,99339.75
2022-11-13T05:47:15.995Z,99336.38
2022-11-13T05:52:37.579Z,99327.44
2022-11-13T05:58:01.506Z,99334.41
2022-11-13T06:03:22.716Z,99329.28
2022-11-13T06:08:45.023Z,99332.03
2022-11-13T06:14:08.285Z,99325.44
2022-11-13T06:19:29.598Z,99320.84
2022-11-13T06:24:51.296Z,99312.28
2022-11-13T06:30:16.050Z,99306.56
2022-11-13T06:35:37.230Z,99308.41
2022-11-13T06:40:59.261Z,99308.25
2022-11-13T06:46:23.769Z,99302.81
2022-11-13T06:51:45.015Z,99293.50
2022-11-13T06:57:06.402Z,99294.00
2022-11-13T07:02:29.447Z,99288.59
2022-11-13T07:07:51.030Z,99291.09
2022-11-13T07:13:12.474Z,99292.28
2022-11-13T07:18:35.880Z,99294.00
2022-11-13T07:23:57.536Z,99277.78
2022-11-13T07:29:19.112Z,99277.97
2022-11-13T07:34:42.082Z,99269.66
2022-11-13T07:40:03.833Z,99271.09
2022-11-13T07:45:25.693Z,99272.72
2022-11-13T07:50:48.655Z,99256.91
2022-11-13T07:56:10.145Z,99255.84
2022-11-13T08:01:31.625Z,99252.94
2022-11-13T08:06:54.640Z,99245.75
2022-11-13T08:12:16.435Z,99247.22
2022-11-13T08:17:37.572Z,99246.25
2022-11-13T08:23:01.785Z,99239.16
2022-11-13T08:28:23.464Z,99241.59
2022-11-13T08:33:45.214Z,99241.97
2022-11-13T08:39:09.791Z,99246.53
2022-11-13T08:44:31.454Z,99247.56
2022-11-13T08:49:53.174Z,99244.31
2022-11-13T08:55:16.296Z,99244.03
2022-11-13T09:00:38.083Z,99243.25
2022-11-13T09:05:59.906Z,99233.38
2022-11-13T09:11:23.043Z,99233.53
2022-11-13T09:16:44.721Z,99224.94
2022-11-13T09:22:06.353Z,99217.88
2022-11-13T09:27:29.236Z,99207.16
2022-11-13T09:32:55.043Z,99204.53
2022-11-13T09:38:16.929Z,99196.31
2022-11-13T09:43:44.176Z,99185.88
2022-11-13T09:49:14.802Z,99184.34
2022-11-13T09:54:36.434Z,99168.47
2022-11-13T10:00:04.758Z,99170.09
2022-11-13T10:05:35.641Z,99161.44
2022-11-13T10:11:04.655Z,99160.72
2022-11-13T10:16:33.068Z,99144.63
2022-11-13T10:22:19.520Z,99146.81
2022-11-13T10:27:41.378Z,99131.44
2022-11-13T10:33:08.226Z,99127.56
2022-11-13T10:38:33.174Z,99121.75
2022-11-13T10:44:04.151Z,99104.34
2022-11-13T10:49:29.844Z,99097.78
2022-11-13T10:54:52.023Z,99092.06
2022-11-13T11:00:22.143Z,99092.56
2022-11-13T11:05:57.649Z,99090.53
2022-11-13T11:11:33.837Z,99079.38
2022-11-13T11:16:57.194Z,99065.69
2022-11-13T11:22:24.347Z,99056.97
2022-11-13T11:27:52.155Z,99045.31
2022-11-13T11:33:18.142Z,99036.03
2022-11-13T11:38:49.474Z,99023.25
2022-11-13T11:44:19.672Z,99009.84
2022-11-13T11:49:41.345Z,99005.63
2022-11-13T11:55:18.898Z,98993.16
2022-11-13T12:00:49.366Z,98969.38
2022-11-13T12:06:24.724Z,98970.16
2022-11-13T12:11:57.132Z,98962.25
2022-11-13T12:17:31.666Z,98961.63
2022-11-13T12:23:03.344Z,98967.88
2022-11-13T12:28:39.720Z,98952.44
2022-11-13T12:34:07.008Z,98936.72
2022-11-13T12:39:37.735Z,98929.47
2022-11-13T12:45:09.022Z,98916.88
2022-11-13T12:50:33.057Z,98909.94
2022-11-13T12:56:00.557Z,98899.69
2022-11-13T13:01:25.125Z,98891.50
2022-11-13T13:07:01.387Z,98881.31
2022-11-13T13:12:40.557Z,98875.53
2022-11-13T13:18:11.837Z,98877.09
2022-11-13T13:23:36.033Z,98871.03
2022-11-13T13:29:15.116Z,98868.63
2022-11-13T13:34:47.875Z,98861.44
2022-11-13T13:40:19.140Z,98856.47
2022-11-13T13:45:52.203Z,98840.69
2022-11-13T13:51:21.853Z,98839.25
2022-11-13T13:56:43.666Z,98835.31
2022-11-13T14:02:15.332Z,98831.00
2022-11-13T14:07:47.148Z,98833.94
2022-11-13T14:13:13.348Z,98831.81
2022-11-13T14:18:36.284Z,98816.56
2022-11-13T14:24:01.426Z,98808.34
2022-11-13T14:29:33.954Z,98806.06
2022-11-13T14:34:59.999Z,98792.91
2022-11-13T14:40:26.058Z,98792.25
2022-11-13T14:45:55.168Z,98773.97
2022-11-13T14:51:24.657Z,98780.88
2022-11-13T14:56:47.758Z,98771.72
2022-11-13T15:02:12.472Z,98762.34
2022-11-13T15:07:40.752Z,98757.91
2022-11-13T15:13:06.498Z,98752.47
2022-11-13T15:18:28.205Z,98751.75
2022-11-13T15:23:49.524Z,98742.28
2022-11-13T15:29:12.360Z,98737.28
2022-11-13T15:34:33.820Z,98740.00
2022-11-13T15:39:55.453Z,98729.50
2022-11-13T15:45:18.518Z,98725.03
2022-11-13T15:50:40.413Z,98722.81
2022-11-13T15:56:05.879Z,98716.84
2022-11-13T16:01:28.669Z,98719.00
2022-11-13T16:06:50.389Z,98725.94
2022-11-13T16:12:12.873Z,98715.81
2022-11-13T16:17:42.717Z,98707.44
2022-11-13T16:23:04.022Z,98714.91
2022-11-13T16:28:25.423Z,98707.63
2022-11-13T16:33:48.506Z,98702.44
2022-11-13T16:39:14.944Z,98701.91
2022-11-13T16:44:36.582Z,98703.63
2022-11-13T16:50:02.464Z,98704.28
2022-11-13T16:55:24.163Z,98696.63
2022-11-13T17:00:45.832Z,98706.19
2022-11-13T17:06:20.364Z,98704.50
2022-11-13T17:11:42.069Z,98710.13
2022-11-13T17:17:04.362Z,98708.19
2022-11-13T17:22:27.166Z,98699.78
2022-11-13T17:27:49.039Z,98700.94
2022-11-13T17:33:11.459Z,98697.75
2022-11-13T17:38:34.636Z,98695.09
2022-11-13T17:44:00.830Z,98689.94
2022-11-13T17:49:24.125Z,98689.28
2022-11-13T17:54:48.057Z,98691.69
2022-11-13T18:00:10.882Z,98683.59
2022-11-13T18:05:40.531Z,98682.00
2022-11-13T18:11:09.295Z,98679.47
2022-11-13T18:16:34.626Z,98680.25
2022-11-13T18:21:55.937Z,98667.75
2022-11-13T18:27:18.802Z,98660.19
2022-11-13T18:32:40.394Z,98659.84
2022-11-13T18:38:03.977Z,98662.41
2022-11-13T18:43:26.891Z,98667.16
2022-11-13T18:48:49.582Z,98661.53
2022-11-13T18:54:12.794Z,98657.78
2022-11-13T18:59:35.679Z,98660.31
2022-11-13T19:04:58.566Z,98649.47
2022-11-13T19:10:20.286Z,98645.88
2022-11-13T19:15:44.310Z,98639.81
2022-11-13T19:21:07.992Z,98627.28
2022-11-13T19:26:30.184Z,98624.63
2022-11-13T19:31:56.026Z,98620.19
2022-11-13T19:37:19.239Z,98618.19
2022-11-13T19:42:42.157Z,98619.22
2022-11-13T19:48:05.143Z,98612.69
2022-11-13T19:53:26.467Z,98600.41
2022-11-13T19:58:49.479Z,98597.84
2022-11-13T20:04:14.486Z,98586.25
2022-11-13T20:09:36.226Z,98583.56
2022-11-13T20:14:57.590Z,98580.81
2022-11-13T20:20:20.372Z,98579.47
2022-11-13T20:25:43.892Z,98567.28
2022-11-13T20:31:07.502Z,98575.94
2022-11-13T20:36:30.506Z,98571.78
2022-11-13T20:41:51.781Z,98570.09
2022-11-13T20:47:13.437Z,98576.38
2022-11-13T20:52:36.392Z,98577.00
2022-11-13T20:57:58.337Z,98573.59
2022-11-13T21:03:20.095Z,98569.00
2022-11-13T21:08:43.922Z,98565.97
2022-11-13T21:14:05.594Z,98557.56
2022-11-13T21:19:28.463Z,98554.94
2022-11-13T21:24:51.556Z,98555.97
2022-11-13T21:30:13.723Z,98551.47
2022-11-13T21:35:35.364Z,98548.31
2022-11-13T21:41:18.845Z,98547.56
2022-11-13T21:46:43.115Z,98540.94
2022-11-13T21:52:05.657Z,98537.97
2022-11-13T21:57:28.723Z,98541.19
2022-11-13T22:02:51.064Z,98546.47
2022-11-13T22:08:12.805Z,98535.25
2022-11-13T22:13:37.276Z,98532.72
2022-11-13T22:19:01.481Z,98520.13
2022-11-13T22:24:23.314Z,98507.97
2022-11-13T22:29:46.602Z,98500.41
2022-11-13T22:35:08.964Z,98490.34
2022-11-13T22:40:30.560Z,98487.78
2022-11-13T22:45:53.424Z,98480.56
2022-11-13T22:51:16.401Z,98476.16
2022-11-13T22:56:39.329Z,98482.53
2022-11-13T23:02:02.493Z,98477.19
2022-11-13T23:07:24.323Z,98475.31
2022-11-13T23:12:45.878Z,98477.44
2022-11-13T23:18:09.938Z,98477.25
2022-11-13T23:23:31.642Z,98469.94
2022-11-13T23:28:53.997Z,98466.28
2022-11-13T23:34:38.435Z,98451.50
2022-11-13T23:39:59.507Z,98443.00
2022-11-13T23:45:21.198Z,98441.13
2022-11-13T23:50:44.841Z,98434.88
2022-11-13T23:56:07.116Z,98435.81
